createdAt,value
2022-10-26T00:01:31.296Z,11.09
2022-10-26T00:03:59.557Z,11.10
2022-10-26T00:06:28.916Z,11.13
2022-10-26T00:08:58.179Z,11.11
2022-10-26T00:11:26.359Z,11.11
2022-10-26T00:13:54.337Z,11.05
2022-10-26T00:16:24.996Z,11.08
2022-10-26T00:18:54.565Z,11.04
2022-10-26T00:21:22.575Z,11.06
2022-10-26T00:23:50.728Z,11.04
2022-10-26T00:26:18.848Z,10.97
2022-10-26T00:28:46.797Z,10.99
2022-10-26T00:31:16.571Z,10.99
2022-10-26T00:33:44.621Z,11.01
2022-10-26T00:36:16.786Z,11.01
2022-10-26T00:38:49.815Z,11.06
2022-10-26T00:41:19.153Z,11.09
2022-10-26T00:43:47.212Z,11.13
2022-10-26T00:46:18.207Z,11.16
2022-10-26T00:48:48.557Z,11.19
2022-10-26T00:51:23.809Z,11.21
2022-10-26T00:53:52.511Z,11.20
2022-10-26T00:56:20.634Z,11.19
2022-10-26T00:58:49.121Z,11.15
2022-10-26T01:01:17.158Z,11.17
2022-10-26T01:03:46.171Z,11.18
2022-10-26T01:06:15.004Z,11.20
2022-10-26T01:08:44.496Z,11.23
2022-10-26T01:11:13.294Z,11.23
2022-10-26T01:14:07.610Z,11.26
2022-10-26T01:16:46.549Z,11.31
2022-10-26T01:19:34.265Z,11.33
2022-10-26T01:22:04.755Z,11.31
2022-10-26T01:24:52.513Z,11.32
2022-10-26T01:27:25.719Z,11.33
2022-10-26T01:30:26.244Z,11.33
2022-10-26T01:33:11.108Z,11.28
2022-10-26T01:35:43.007Z,11.32
2022-10-26T01:38:26.117Z,11.22
2022-10-26T01:40:59.481Z,11.21
2022-10-26T01:43:29.728Z,11.29
2022-10-26T01:45:58.510Z,11.29
2022-10-26T01:48:29.291Z,11.21
2022-10-26T01:50:58.817Z,11.29
2022-10-26T01:53:28.620Z,11.22
2022-10-26T01:55:57.362Z,11.21
2022-10-26T01:58:40.452Z,11.26
2022-10-26T02:01:17.504Z,11.10
2022-10-26T02:03:52.245Z,10.76
2022-10-26T02:06:24.346Z,10.92
2022-10-26T02:08:59.585Z,11.04
2022-10-26T02:11:35.194Z,10.99
2022-10-26T02:14:09.840Z,10.98
2022-10-26T02:16:41.952Z,11.00
2022-10-26T02:19:17.092Z,11.04
2022-10-26T02:21:49.037Z,11.12
2022-10-26T02:24:18.474Z,11.16
2022-10-26T02:26:48.778Z,11.07
2022-10-26T02:29:19.139Z,11.15
2022-10-26T02:31:48.357Z,11.20
2022-10-26T02:34:21.376Z,11.25
2022-10-26T02:36:52.141Z,11.28
2022-10-26T02:39:20.727Z,11.27
2022-10-26T02:41:48.951Z,11.12
2022-10-26T02:44:23.973Z,11.20
2022-10-26T02:46:52.185Z,11.21
2022-10-26T02:49:22.024Z,11.24
2022-10-26T02:51:52.546Z,11.21
2022-10-26T02:54:26.524Z,11.18
2022-10-26T02:56:57.714Z,11.24
2022-10-26T02:59:29.278Z,11.28
2022-10-26T03:01:58.172Z,11.31
2022-10-26T03:04:31.314Z,10.98
2022-10-26T03:06:59.389Z,11.14
2022-10-26T03:09:27.742Z,11.22
2022-10-26T03:11:55.755Z,11.24
2022-10-26T03:14:23.935Z,11.27
2022-10-26T03:19:24.889Z,11.29
2022-10-26T03:21:54.269Z,11.32
2022-10-26T03:24:22.299Z,11.36
2022-10-26T03:26:50.282Z,11.37
2022-10-26T03:29:18.286Z,11.39
2022-10-26T03:31:46.401Z,11.38
2022-10-26T03:34:14.556Z,11.39
2022-10-26T03:36:42.508Z,11.32
2022-10-26T03:39:11.874Z,11.32
2022-10-26T03:41:39.990Z,11.36
2022-10-26T03:44:08.058Z,11.38
2022-10-26T03:46:36.061Z,11.36
2022-10-26T03:49:04.076Z,11.36
2022-10-26T03:51:32.498Z,11.35
2022-10-26T03:54:00.549Z,11.38
2022-10-26T03:56:29.877Z,11.35
2022-10-26T03:58:57.929Z,11.32
2022-10-26T04:01:26.022Z,11.32
2022-10-26T04:03:54.062Z,11.35
2022-10-26T04:06:22.058Z,11.38
2022-10-26T04:08:50.041Z,11.39
2022-10-26T04:11:18.017Z,11.35
2022-10-26T04:13:49.105Z,11.29
2022-10-26T04:16:17.066Z,11.32
2022-10-26T04:18:46.129Z,11.34
2022-10-26T04:21:14.167Z,11.33
2022-10-26T04:23:42.195Z,11.31
2022-10-26T04:26:10.183Z,11.36
2022-10-26T04:28:38.259Z,11.38
2022-10-26T04:31:07.844Z,11.35
2022-10-26T04:33:35.863Z,11.33
2022-10-26T04:36:04.242Z,11.33
2022-10-26T04:38:32.322Z,11.29
2022-10-26T04:41:00.333Z,11.30
2022-10-26T04:43:28.351Z,11.29
2022-10-26T04:45:56.768Z,11.32
2022-10-26T04:48:26.563Z,11.35
2022-10-26T04:50:54.634Z,11.36
2022-10-26T04:53:22.645Z,11.39
2022-10-26T04:55:50.697Z,11.36
2022-10-26T04:58:18.702Z,11.28
2022-10-26T05:00:46.791Z,11.21
2022-10-26T05:03:14.888Z,11.30
2022-10-26T05:05:44.308Z,11.35
2022-10-26T05:08:12.310Z,11.36
2022-10-26T05:10:40.368Z,11.34
2022-10-26T05:13:08.709Z,11.36
2022-10-26T05:15:36.826Z,11.39
2022-10-26T05:18:06.558Z,11.41
2022-10-26T05:20:35.748Z,11.44
2022-10-26T05:23:06.794Z,11.41
2022-10-26T05:25:36.877Z,11.47
2022-10-26T05:28:08.018Z,11.48
2022-10-26T05:30:36.333Z,11.50
2022-10-26T05:33:04.387Z,11.51
2022-10-26T05:35:32.833Z,11.54
2022-10-26T05:38:02.036Z,11.40
2022-10-26T05:40:31.417Z,11.31
2022-10-26T05:43:01.447Z,11.09
2022-10-26T05:45:29.539Z,11.10
2022-10-26T05:48:00.230Z,11.06
2022-10-26T05:50:31.343Z,11.23
2022-10-26T05:52:59.354Z,11.27
2022-10-26T05:55:28.225Z,11.37
2022-10-26T05:57:58.298Z,11.40
2022-10-26T06:00:28.091Z,11.46
2022-10-26T06:03:19.906Z,11.48
2022-10-26T06:05:53.444Z,11.46
2022-10-26T06:08:22.664Z,11.53
2022-10-26T06:10:51.593Z,11.52
2022-10-26T06:13:21.956Z,11.58
2022-10-26T06:16:03.361Z,11.58
2022-10-26T06:18:37.925Z,11.60
2022-10-26T06:21:23.621Z,11.63
2022-10-26T06:23:55.711Z,11.63
2022-10-26T06:26:33.455Z,11.64
2022-10-26T06:29:11.682Z,11.42
2022-10-26T06:31:39.751Z,11.39
2022-10-26T06:34:07.793Z,11.29
2022-10-26T06:36:36.249Z,11.44
2022-10-26T06:39:07.348Z,11.47
2022-10-26T06:41:36.942Z,11.36
2022-10-26T06:44:07.605Z,11.45
2022-10-26T06:46:39.687Z,11.51
2022-10-26T06:49:14.344Z,11.50
2022-10-26T06:51:47.326Z,11.47
2022-10-26T06:54:20.071Z,11.52
2022-10-26T06:56:48.642Z,11.56
2022-10-26T06:59:21.846Z,11.57
2022-10-26T07:01:50.100Z,11.61
2022-10-26T07:04:18.205Z,11.65
2022-10-26T07:06:46.307Z,11.60
2022-10-26T07:09:14.411Z,11.59
2022-10-26T07:11:42.999Z,11.64
2022-10-26T07:14:11.132Z,11.69
2022-10-26T07:16:40.523Z,11.70
2022-10-26T07:19:08.777Z,11.75
2022-10-26T07:21:36.894Z,11.79
2022-10-26T07:24:05.180Z,11.64
2022-10-26T07:26:33.255Z,11.78
2022-10-26T07:29:01.297Z,11.84
2022-10-26T07:31:29.350Z,11.91
2022-10-26T07:33:58.780Z,11.96
2022-10-26T07:36:26.841Z,11.97
2022-10-26T07:38:54.958Z,11.99
2022-10-26T07:41:23.033Z,12.01
2022-10-26T07:43:51.229Z,11.98
2022-10-26T07:46:19.346Z,12.02
2022-10-26T07:48:47.422Z,11.97
2022-10-26T07:51:18.033Z,12.08
2022-10-26T07:53:46.140Z,12.11
2022-10-26T07:56:14.427Z,12.20
2022-10-26T07:58:42.581Z,12.24
2022-10-26T08:01:11.801Z,12.30
2022-10-26T08:03:40.059Z,12.36
2022-10-26T08:06:09.560Z,12.41
2022-10-26T08:08:41.403Z,12.43
2022-10-26T08:11:11.619Z,12.49
2022-10-26T08:13:39.692Z,12.53
2022-10-26T08:16:08.216Z,12.57
2022-10-26T08:18:36.318Z,12.61
2022-10-26T08:21:11.156Z,12.66
2022-10-26T08:23:42.362Z,12.75
2022-10-26T08:26:11.824Z,12.79
2022-10-26T08:28:40.324Z,12.82
2022-10-26T08:31:08.778Z,12.80
2022-10-26T08:33:36.957Z,12.88
2022-10-26T08:36:06.652Z,12.95
2022-10-26T08:38:34.908Z,13.00
2022-10-26T08:41:10.620Z,13.07
2022-10-26T08:43:42.190Z,13.14
2022-10-26T08:46:13.760Z,13.19
2022-10-26T08:48:45.483Z,13.24
2022-10-26T08:51:16.558Z,13.23
2022-10-26T08:53:49.742Z,13.25
2022-10-26T08:56:22.571Z,13.37
2022-10-26T08:58:55.192Z,13.40
2022-10-26T09:01:23.633Z,13.47
2022-10-26T09:03:52.025Z,13.59
2022-10-26T09:06:27.736Z,13.56
2022-10-26T09:09:02.309Z,13.66
2022-10-26T09:11:41.945Z,13.81
2022-10-26T09:14:15.188Z,13.93
2022-10-26T09:16:51.475Z,14.01
2022-10-26T09:19:38.917Z,14.16
2022-10-26T09:22:14.192Z,14.24
2022-10-26T09:24:48.440Z,14.31
2022-10-26T09:27:21.311Z,14.43
2022-10-26T09:29:50.082Z,14.55
2022-10-26T09:32:20.438Z,14.55
2022-10-26T09:34:50.575Z,14.68
2022-10-26T09:37:21.303Z,14.79
2022-10-26T09:39:57.563Z,14.87
2022-10-26T09:42:30.230Z,14.96
2022-10-26T09:45:01.640Z,15.06
2022-10-26T09:47:36.420Z,15.11
2022-10-26T09:50:15.117Z,15.22
2022-10-26T09:52:43.165Z,15.24
2022-10-26T09:55:12.459Z,15.35
2022-10-26T09:57:43.478Z,15.37
2022-10-26T10:00:15.581Z,15.50
2022-10-26T10:02:44.918Z,15.59
2022-10-26T10:05:50.664Z,15.59
2022-10-26T10:08:21.795Z,15.70
2022-10-26T10:11:04.027Z,15.76
2022-10-26T10:13:35.230Z,15.80
2022-10-26T10:16:06.520Z,15.79
2022-10-26T10:18:35.384Z,15.87
2022-10-26T10:21:05.652Z,15.86
2022-10-26T10:23:35.667Z,15.86
2022-10-26T10:26:11.000Z,15.83
2022-10-26T10:28:42.464Z,15.82
2022-10-26T10:31:21.437Z,15.91
2022-10-26T10:33:50.308Z,16.03
2022-10-26T10:36:21.256Z,16.04
2022-10-26T10:38:51.112Z,16.02
2022-10-26T10:41:26.935Z,16.07
2022-10-26T10:44:04.439Z,16.13
2022-10-26T10:46:32.494Z,16.10
2022-10-26T10:49:05.282Z,16.09
2022-10-26T10:51:38.056Z,16.19
2022-10-26T10:54:07.294Z,16.26
2022-10-26T10:56:39.549Z,16.30
2022-10-26T10:59:21.117Z,16.36
2022-10-26T11:01:52.249Z,16.41
2022-10-26T11:04:35.579Z,16.41
2022-10-26T11:07:05.492Z,16.53
2022-10-26T11:09:35.209Z,16.57
2022-10-26T11:12:09.836Z,16.62
2022-10-26T11:14:44.180Z,16.57
2022-10-26T11:17:18.807Z,16.61
2022-10-26T11:19:50.490Z,16.65
2022-10-26T11:22:21.006Z,16.71
2022-10-26T11:24:51.881Z,16.54
2022-10-26T11:27:23.360Z,16.58
2022-10-26T11:29:57.124Z,16.65
2022-10-26T11:32:30.035Z,16.71
2022-10-26T11:35:01.791Z,16.80
2022-10-26T11:37:32.998Z,16.71
2022-10-26T11:40:10.106Z,16.76
2022-10-26T11:42:42.349Z,16.84
2022-10-26T11:45:17.116Z,16.84
2022-10-26T11:47:50.112Z,16.78
2022-10-26T11:50:21.314Z,16.87
2022-10-26T11:52:52.367Z,16.92
2022-10-26T11:55:21.113Z,16.92
2022-10-26T11:57:50.093Z,16.84
2022-10-26T12:00:21.243Z,16.88
2022-10-26T12:02:51.835Z,16.91
2022-10-26T12:05:33.892Z,16.68
2022-10-26T12:08:06.856Z,16.80
2022-10-26T12:10:37.427Z,16.89
2022-10-26T12:13:12.412Z,16.86
2022-10-26T12:16:03.572Z,16.92
2022-10-26T12:18:54.497Z,16.95
2022-10-26T12:21:26.595Z,16.86
2022-10-26T12:23:56.300Z,16.85
2022-10-26T12:26:54.429Z,16.95
2022-10-26T12:29:36.770Z,17.05
2022-10-26T12:32:44.699Z,17.14
2022-10-26T12:35:51.432Z,17.24
2022-10-26T12:39:02.230Z,17.23
2022-10-26T12:41:30.607Z,17.33
2022-10-26T12:43:59.520Z,17.19
2022-10-26T12:46:43.063Z,17.18
2022-10-26T12:49:58.638Z,17.10
2022-10-26T12:52:35.075Z,17.11
2022-10-26T12:55:33.312Z,17.24
2022-10-26T12:58:24.871Z,17.20
2022-10-26T13:01:09.729Z,17.19
2022-10-26T13:03:46.322Z,17.34
2022-10-26T13:06:37.445Z,17.37
2022-10-26T13:09:09.662Z,17.29
2022-10-26T13:11:41.428Z,17.25
2022-10-26T13:14:20.373Z,17.34
2022-10-26T13:16:48.561Z,17.40
2022-10-26T13:19:27.257Z,17.29
2022-10-26T13:21:55.369Z,17.32
2022-10-26T13:24:25.700Z,17.34
2022-10-26T13:27:26.424Z,17.26
2022-10-26T13:30:23.062Z,17.35
2022-10-26T13:32:54.238Z,17.39
2022-10-26T13:35:23.493Z,17.49
2022-10-26T13:37:52.875Z,17.43
2022-10-26T13:40:23.042Z,17.49
2022-10-26T13:42:53.591Z,17.51
2022-10-26T13:45:26.488Z,17.51
2022-10-26T13:47:58.912Z,17.50
2022-10-26T13:50:32.045Z,17.61
2022-10-26T13:55:33.652Z,17.70
2022-10-26T13:58:11.455Z,17.72
2022-10-26T14:00:40.874Z,17.76
2022-10-26T14:03:15.616Z,17.75
2022-10-26T14:05:45.546Z,17.70
2022-10-26T14:08:17.117Z,17.63
2022-10-26T14:10:48.026Z,17.71
2022-10-26T14:13:18.140Z,17.75
2022-10-26T14:15:47.843Z,17.78
2022-10-26T14:18:18.455Z,17.78
2022-10-26T14:20:49.934Z,17.80
2022-10-26T14:23:28.257Z,17.83
2022-10-26T14:25:59.111Z,17.81
2022-10-26T14:28:29.022Z,17.86
2022-10-26T14:33:50.465Z,17.94
2022-10-26T14:36:20.599Z,17.95
2022-10-26T14:38:51.178Z,17.97
2022-10-26T14:41:19.336Z,17.97
2022-10-26T14:43:47.579Z,17.92
2022-10-26T14:46:17.303Z,17.94
2022-10-26T14:48:54.524Z,17.97
2022-10-26T14:51:28.398Z,17.94
2022-10-26T14:53:58.422Z,17.95
2022-10-26T14:56:29.947Z,17.94
2022-10-26T14:58:58.738Z,17.91
2022-10-26T15:01:35.721Z,17.89
2022-10-26T15:04:07.664Z,17.82
2022-10-26T15:06:43.731Z,17.84
2022-10-26T15:09:34.480Z,17.84
2022-10-26T15:12:05.407Z,17.84
2022-10-26T15:14:34.900Z,17.81
2022-10-26T15:17:03.109Z,17.80
2022-10-26T15:19:32.666Z,17.71
2022-10-26T15:22:00.728Z,17.70
2022-10-26T15:24:39.145Z,17.71
2022-10-26T15:27:14.116Z,17.67
2022-10-26T15:29:44.566Z,17.58
2022-10-26T15:32:30.342Z,17.42
2022-10-26T15:35:24.957Z,17.45
2022-10-26T15:37:55.047Z,17.50
2022-10-26T15:40:23.309Z,17.52
2022-10-26T15:42:53.059Z,17.51
2022-10-26T15:45:22.992Z,17.48
2022-10-26T15:47:52.045Z,17.34
2022-10-26T15:50:23.081Z,17.37
2022-10-26T15:52:52.169Z,17.26
2022-10-26T15:55:20.281Z,17.20
2022-10-26T15:57:48.962Z,17.20
2022-10-26T16:00:18.371Z,17.14
2022-10-26T16:02:46.844Z,16.99
2022-10-26T16:05:17.041Z,16.86
2022-10-26T16:07:48.293Z,16.90
2022-10-26T16:10:20.013Z,16.93
2022-10-26T16:12:49.940Z,17.02
2022-10-26T16:15:20.424Z,17.07
2022-10-26T16:17:49.233Z,17.10
2022-10-26T16:20:19.641Z,17.11
2022-10-26T16:22:50.036Z,17.12
2022-10-26T16:25:20.142Z,17.13
2022-10-26T16:27:49.522Z,17.11
2022-10-26T16:30:18.133Z,17.09
2022-10-26T16:32:46.332Z,17.07
2022-10-26T16:35:15.016Z,17.02
2022-10-26T16:37:43.325Z,16.98
2022-10-26T16:40:13.498Z,16.94
2022-10-26T16:42:43.957Z,16.93
2022-10-26T16:45:12.580Z,16.91
2022-10-26T16:47:40.891Z,16.91
2022-10-26T16:50:09.743Z,16.89
2022-10-26T16:52:38.422Z,16.88
2022-10-26T16:55:07.455Z,16.83
2022-10-26T16:57:38.070Z,16.82
2022-10-26T17:00:07.636Z,16.80
2022-10-26T17:02:35.824Z,16.80
2022-10-26T17:05:07.184Z,16.77
2022-10-26T17:07:36.196Z,16.73
2022-10-26T17:10:04.701Z,16.71
2022-10-26T17:12:32.933Z,16.68
2022-10-26T17:15:02.606Z,16.66
2022-10-26T17:17:31.150Z,16.64
2022-10-26T17:19:59.167Z,16.65
2022-10-26T17:22:27.219Z,16.63
2022-10-26T17:24:55.191Z,16.60
2022-10-26T17:27:23.490Z,16.58
2022-10-26T17:29:51.506Z,16.56
2022-10-26T17:32:22.262Z,16.54
2022-10-26T17:34:50.257Z,16.51
2022-10-26T17:37:18.316Z,16.49
2022-10-26T17:39:46.392Z,16.46
2022-10-26T17:42:14.428Z,16.44
2022-10-26T17:44:42.479Z,16.41
2022-10-26T17:47:10.449Z,16.40
2022-10-26T17:49:39.845Z,16.36
2022-10-26T17:52:07.880Z,16.33
2022-10-26T17:54:35.914Z,16.29
2022-10-26T17:57:04.007Z,16.29
2022-10-26T17:59:32.307Z,16.25
2022-10-26T18:02:00.518Z,16.25
2022-10-26T18:04:28.697Z,16.22
2022-10-26T18:06:58.321Z,16.22
2022-10-26T18:09:26.497Z,16.20
2022-10-26T18:11:55.915Z,16.16
2022-10-26T18:14:24.517Z,16.15
2022-10-26T18:16:52.608Z,16.08
2022-10-26T18:19:20.734Z,16.08
2022-10-26T18:21:48.752Z,16.07
2022-10-26T18:24:18.186Z,16.04
2022-10-26T18:26:46.203Z,15.98
2022-10-26T18:29:14.514Z,15.93
2022-10-26T18:31:42.646Z,15.89
2022-10-26T18:34:10.742Z,15.86
2022-10-26T18:36:38.874Z,15.88
2022-10-26T18:39:07.376Z,15.83
2022-10-26T18:41:36.777Z,15.82
2022-10-26T18:44:07.707Z,15.84
2022-10-26T18:46:40.687Z,15.82
2022-10-26T18:49:10.159Z,15.81
2022-10-26T18:51:38.313Z,15.80
2022-10-26T18:54:06.364Z,15.80
2022-10-26T18:56:34.361Z,15.79
2022-10-26T18:59:03.705Z,15.79
2022-10-26T19:01:33.335Z,15.78
2022-10-26T19:04:02.722Z,15.76
2022-10-26T19:06:32.692Z,15.75
2022-10-26T19:09:01.033Z,15.73
2022-10-26T19:11:30.687Z,15.72
2022-10-26T19:13:59.102Z,15.71
2022-10-26T19:16:45.299Z,15.69
2022-10-26T19:19:14.339Z,15.65
2022-10-26T19:21:42.426Z,15.64
2022-10-26T19:24:13.631Z,15.62
2022-10-26T19:26:43.735Z,15.58
2022-10-26T19:29:15.065Z,15.55
2022-10-26T19:31:45.469Z,15.54
2022-10-26T19:34:14.875Z,15.52
2022-10-26T19:36:45.040Z,15.50
2022-10-26T19:39:14.306Z,15.48
2022-10-26T19:41:42.445Z,15.47
2022-10-26T19:44:12.106Z,15.45
2022-10-26T19:46:40.599Z,15.43
2022-10-26T19:49:09.987Z,15.40
2022-10-26T19:51:39.041Z,15.39
2022-10-26T19:54:07.656Z,15.36
2022-10-26T19:56:37.152Z,15.33
2022-10-26T19:59:05.769Z,15.30
2022-10-26T20:01:34.014Z,15.28
2022-10-26T20:04:02.909Z,15.24
2022-10-26T20:06:32.525Z,15.22
2022-10-26T20:09:02.265Z,15.19
2022-10-26T20:11:32.182Z,15.17
2022-10-26T20:14:00.498Z,15.12
2022-10-26T20:16:28.560Z,15.09
2022-10-26T20:18:56.549Z,15.06
2022-10-26T20:21:24.621Z,15.02
2022-10-26T20:23:54.999Z,14.99
2022-10-26T20:26:25.208Z,14.95
2022-10-26T20:28:55.633Z,14.91
2022-10-26T20:31:23.707Z,14.88
2022-10-26T20:33:52.811Z,14.85
2022-10-26T20:36:21.158Z,14.80
2022-10-26T20:38:49.730Z,14.75
2022-10-26T20:41:19.733Z,14.73
2022-10-26T20:43:48.397Z,14.69
2022-10-26T20:46:22.432Z,14.66
2022-10-26T20:48:51.407Z,14.64
2022-10-26T20:51:25.274Z,14.60
2022-10-26T20:54:20.325Z,14.53
2022-10-26T20:56:50.892Z,14.46
2022-10-26T20:59:23.697Z,14.44
2022-10-26T21:01:51.935Z,14.39
2022-10-26T21:04:20.008Z,14.36
2022-10-26T21:06:48.113Z,14.32
2022-10-26T21:09:16.393Z,14.26
2022-10-26T21:11:45.423Z,14.24
2022-10-26T21:14:14.844Z,14.22
2022-10-26T21:16:42.834Z,14.22
2022-10-26T21:19:10.859Z,14.19
2022-10-26T21:21:38.841Z,14.15
2022-10-26T21:24:07.675Z,14.01
2022-10-26T21:26:36.145Z,14.00
2022-10-26T21:29:04.299Z,13.95
2022-10-26T21:31:34.313Z,13.90
2022-10-26T21:34:02.395Z,13.89
2022-10-26T21:36:30.405Z,13.88
2022-10-26T21:38:58.509Z,13.85
2022-10-26T21:41:26.735Z,13.82
2022-10-26T21:44:03.463Z,13.79
2022-10-26T21:46:39.307Z,13.79
2022-10-26T21:49:07.608Z,13.76
2022-10-26T21:51:36.049Z,13.74
2022-10-26T21:54:04.391Z,13.73
2022-10-26T21:56:32.481Z,13.70
2022-10-26T21:59:01.367Z,13.68
2022-10-26T22:01:29.444Z,13.66
2022-10-26T22:03:59.086Z,13.65
2022-10-26T22:06:27.101Z,13.61
2022-10-26T22:08:55.269Z,13.57
2022-10-26T22:11:25.022Z,13.52
2022-10-26T22:13:53.236Z,13.51
2022-10-26T22:16:23.083Z,13.50
2022-10-26T22:18:52.579Z,13.46
2022-10-26T22:21:26.549Z,13.41
2022-10-26T22:23:55.133Z,13.33
2022-10-26T22:26:24.792Z,13.36
2022-10-26T22:28:55.033Z,13.31
2022-10-26T22:31:25.072Z,13.25
2022-10-26T22:33:53.647Z,13.20
2022-10-26T22:36:21.693Z,13.16
2022-10-26T22:38:51.591Z,13.14
2022-10-26T22:41:20.961Z,13.08
2022-10-26T22:43:50.735Z,13.03
2022-10-26T22:46:20.570Z,12.97
2022-10-26T22:48:48.713Z,12.98
2022-10-26T22:51:19.736Z,12.98
2022-10-26T22:53:48.224Z,12.99
2022-10-26T22:56:17.876Z,12.98
2022-10-26T22:58:46.093Z,12.92
2022-10-26T23:01:15.751Z,12.90
2022-10-26T23:03:44.377Z,12.88
2022-10-26T23:06:14.122Z,12.82
2022-10-26T23:08:42.342Z,12.79
2022-10-26T23:11:12.147Z,12.73
2022-10-26T23:13:41.624Z,12.70
2022-10-26T23:16:11.402Z,12.66
2022-10-26T23:18:39.837Z,12.61
2022-10-26T23:21:08.941Z,12.57
2022-10-26T23:23:37.135Z,12.59
2022-10-26T23:26:06.927Z,12.58
2022-10-26T23:28:35.076Z,12.54
2022-10-26T23:31:04.521Z,12.52
2022-10-26T23:33:32.557Z,12.50
2022-10-26T23:36:01.246Z,12.46
2022-10-26T23:38:29.306Z,12.44
2022-10-26T23:40:58.204Z,12.45
2022-10-26T23:43:26.821Z,12.46
2022-10-26T23:45:55.609Z,12.41
2022-10-26T23:48:25.158Z,12.43
2022-10-26T23:50:53.186Z,12.41
2022-10-26T23:53:22.751Z,12.38
2022-10-26T23:55:51.389Z,12.39
2022-10-26T23:58:19.646Z,12.36
